Overview Statistics Trail Chart Weather Telemetry Raw packets
 

This is the latest recevied telemetry packets stored in our database for station/object IU4KCH-22. If no packets are shown the sender has not sent any telemetry packets the latest 10 day(s).

Telemetry packets is used to share measurements like repeteater parameters, battery voltage, radiation readings (or any other measurements).

<< 1 2 3 4 >>
Time Press* Temp.in* Hum* eGAS* Temp.out*
1788566333 1012.7 hPa 29.1 C deg 39.2 % 820 - 0 C deg
1788564518 1012.8 hPa 29.7 C deg 37.7 % 893 - 0 C deg
1788562703 1012.9 hPa 29.6 C deg 37.2 % 821 - 0 C deg
1788560888 1012.9 hPa 30.3 C deg 35.6 % 961 - 0 C deg
1788559073 1013 hPa 30.7 C deg 34.3 % 1064 - 0 C deg
1788557258 1013 hPa 31.3 C deg 33.1 % 971 - 0 C deg
1788555443 1013.2 hPa 30.4 C deg 37.2 % 783 - 0 C deg
1788553628 1013.3 hPa 30.9 C deg 40.5 % 698 - 0 C deg
1788551812 1013.2 hPa 31.6 C deg 37.9 % 800 - 0 C deg
1788549997 1013.2 hPa 32.1 C deg 38.2 % 775 - 0 C deg
1788548182 1012.9 hPa 32.8 C deg 36.8 % 820 - 0 C deg
1788546368 1012.8 hPa 33.6 C deg 34.5 % 879 - 0 C deg
1788544552 1012.5 hPa 34.7 C deg 32.5 % 929 - 0 C deg
1788542737 1012.5 hPa 36.3 C deg 30.2 % 983 - 0 C deg
1788540922 1012.3 hPa 37.9 C deg 31.5 % 1106 - 0 C deg
1788539107 1012.4 hPa 38.6 C deg 29.8 % 1131 - 0 C deg
1788537292 1012.5 hPa 40.1 C deg 28.5 % 1068 - 0 C deg
1788535476 1012.8 hPa 42.3 C deg 25 % 1105 - 0 C deg
1788533661 1013.1 hPa 46.2 C deg 22 % 1073 - 0 C deg
1788531846 1013.3 hPa 46.4 C deg 22.1 % 1041 - 0 C deg
1788530031 1013.5 hPa 45.1 C deg 22.7 % 1068 - 0 C deg
1788528216 1013.9 hPa 44.7 C deg 23.7 % 1082 - 0 C deg
1788526401 1014.2 hPa 43.5 C deg 26 % 1032 - 0 C deg
1788524586 1014.7 hPa 41.9 C deg 28.7 % 787 - 0 C deg
1788522771 1014.8 hPa 34.8 C deg 40.3 % 863 - 0 C deg
*Used Equation Coefficients:
Press: 0, 1, 0
Temp.in: 0, 1, 0
Hum: 0, 1, 0
eGAS: 0, 1, 0
Temp.out: 0, 1, 0

  • The parameter names for the analog channels will be Value1, Value2, Value3 (up to Value5) if station has not sent a PARAM-packet that specifies the parameter names for each analog channel.
  • Each analog value is a decimal number between 000 and 255 (according to APRS specifications). The receiver use the telemetry equation coefficientsto to restore the original sensor values. If no EQNS-packet with equation coefficients is sent we will show the values as is (this corresponds to the equation coefficients a=0, b=1 and c=0).
    The sent equation coefficients is used in the equation: a * value2 + b * value + c.
  • The units for the analog values will not be shown if station has not sent a UNIT-packet specifying what unit's to use.
  • The parameter names for the digital bits will be Bit1, Bit2, Bit3 (up to Bit8) if station has not sent a PARAM-packet that specifies the parameter names for each digital bit.
  • All bit labels will be named "On" if station has not sent a UNIT-packet that specifies the label of each bit.
  • A bit is considered to be On when the bit is 1 if station has not sent a BITS-packet that specifies another "Bit sense" (a BITS-packet specify the state of the bits that match the BIT labels)